Time;durP1;ratioP1;P1;durP2;ratioP2;P2;SDS_P1;SDS_P2;PMS_P1;PMS_P2;Temp;Humidity;BMP_temperature;BMP_pressure;BME280_temperature;BME280_humidity;BME280_pressure;Samples;Min_cycle;Max_cycle;Signal;HPM_P1;HPM_P2
2022/08/18 00:00:59;;;;;;;9.53;8.70;;;;;;;;;;1847942;76;25673;-45
2022/08/18 00:03:28;;;;;;;10.10;9.20;;;;;;;;;;1844292;76;25732;-48
2022/08/18 00:05:55;;;;;;;10.28;9.28;;;;;;;;;;1832276;77;26377;-45
2022/08/18 00:08:22;;;;;;;10.38;9.38;;;;;;;;;;1852932;76;26272;-47
2022/08/18 00:10:50;;;;;;;10.25;9.35;;;;;;;;;;1834013;76;26267;-51
2022/08/18 00:13:17;;;;;;;10.50;9.55;;;;;;;;;;1848647;76;26784;-48
2022/08/18 00:15:44;;;;;;;10.75;9.75;;;;;;;;;;1847070;76;26695;-48
2022/08/18 00:18:11;;;;;;;10.70;9.70;;;;;;;;;;1846048;76;26841;-49
2022/08/18 00:20:40;;;;;;;9.78;8.88;;;;;;;;;;1848012;77;26289;-46
2022/08/18 00:23:08;;;;;;;10.40;9.40;;;;;;;;;;1835438;77;26322;-46
2022/08/18 00:25:35;;;;;;;10.05;9.15;;;;;;;;;;1831137;77;26803;-50
2022/08/18 00:28:03;;;;;;;11.20;9.88;;;;;;;;;;1829478;76;26753;-46
2022/08/18 00:30:31;;;;;;;10.72;9.73;;;;;;;;;;1840884;77;26746;-46
2022/08/18 00:32:59;;;;;;;10.20;9.30;;;;;;;;;;1833718;77;26218;-47
2022/08/18 00:35:28;;;;;;;9.40;8.60;;;;;;;;;;1837939;77;26311;-46
2022/08/18 00:37:57;;;;;;;10.10;9.20;;;;;;;;;;1838443;76;26286;-46
2022/08/18 00:40:27;;;;;;;10.50;9.50;;;;;;;;;;1847012;77;26846;-46
2022/08/18 00:42:56;;;;;;;10.60;9.50;;;;;;;;;;1828578;77;26331;-46
2022/08/18 00:45:26;;;;;;;10.60;9.60;;;;;;;;;;1816320;77;26286;-51
2022/08/18 00:47:54;;;;;;;10.32;9.43;;;;;;;;;;1822052;76;26329;-47
2022/08/18 00:50:28;;;;;;;10.40;9.43;;;;;;;;;;1826243;77;26301;-45
2022/08/18 00:52:57;;;;;;;10.30;9.38;;;;;;;;;;1788495;76;26808;-48
2022/08/18 00:55:25;;;;;;;10.48;9.45;;;;;;;;;;1844401;77;26386;-45
2022/08/18 00:57:53;;;;;;;10.15;9.15;;;;;;;;;;1844661;76;26785;-46
2022/08/18 01:00:21;;;;;;;10.25;9.18;;;;;;;;;;1826309;77;26356;-49
2022/08/18 01:02:49;;;;;;;10.65;9.13;;;;;;;;;;1845276;77;26380;-47
2022/08/18 01:05:21;;;;;;;10.05;9.05;;;;;;;;;;1835737;77;26370;-44
2022/08/18 01:07:49;;;;;;;10.08;9.13;;;;;;;;;;1844503;76;26348;-47
2022/08/18 01:10:18;;;;;;;10.00;9.00;;;;;;;;;;1832865;76;26291;-49
2022/08/18 01:12:46;;;;;;;9.65;8.75;;;;;;;;;;1849977;76;26350;-47
2022/08/18 01:15:14;;;;;;;10.20;9.30;;;;;;;;;;1852459;77;26289;-48
2022/08/18 01:23:16;;;;;;;9.78;8.88;;;;;;;;;;1826773;77;26244;-47
2022/08/18 01:26:08;;;;;;;9.38;8.58;;;;;;;;;;1845146;77;26370;-46
2022/08/18 01:28:13;;;;;;;9.35;8.55;;;;;;;;;;1844239;77;26421;-47
2022/08/18 01:30:46;;;;;;;9.18;8.38;;;;;;;;;;1845245;77;26744;-46
2022/08/18 01:33:13;;;;;;;10.13;9.00;;;;;;;;;;1847382;76;26280;-46
2022/08/18 01:35:42;;;;;;;10.08;9.08;;;;;;;;;;1844130;77;26272;-45
2022/08/18 01:38:10;;;;;;;9.43;8.63;;;;;;;;;;1844119;76;26417;-46
2022/08/18 01:40:37;;;;;;;10.28;9.15;;;;;;;;;;1845242;76;26382;-47
2022/08/18 01:43:04;;;;;;;9.78;8.80;;;;;;;;;;1840420;76;26181;-47
2022/08/18 01:45:32;;;;;;;9.83;8.93;;;;;;;;;;1847765;77;26244;-48
2022/08/18 01:47:59;;;;;;;9.40;8.50;;;;;;;;;;1837478;76;26350;-46
2022/08/18 01:50:27;;;;;;;9.40;8.60;;;;;;;;;;1847634;76;26681;-48
2022/08/18 01:52:54;;;;;;;9.20;8.30;;;;;;;;;;1842720;77;26357;-48
2022/08/18 01:55:21;;;;;;;9.25;8.45;;;;;;;;;;1839766;77;26321;-46
2022/08/18 01:57:49;;;;;;;9.50;8.60;;;;;;;;;;1846102;76;26325;-48
2022/08/18 02:00:17;;;;;;;9.60;8.70;;;;;;;;;;1839840;76;26266;-46
2022/08/18 02:02:45;;;;;;;8.83;8.03;;;;;;;;;;1838440;77;26258;-45
2022/08/18 02:05:17;;;;;;;8.83;8.03;;;;;;;;;;1832855;77;26287;-46
2022/08/18 02:07:45;;;;;;;9.18;8.38;;;;;;;;;;1855764;76;26283;-48
2022/08/18 02:10:12;;;;;;;9.20;8.40;;;;;;;;;;1845465;77;26319;-49
2022/08/18 02:12:40;;;;;;;9.20;8.30;;;;;;;;;;1845001;77;26208;-48
2022/08/18 02:15:08;;;;;;;9.43;8.48;;;;;;;;;;1828349;77;26719;-46
2022/08/18 02:17:40;;;;;;;9.33;8.53;;;;;;;;;;1836402;76;26266;-46
2022/08/18 02:20:08;;;;;;;9.10;8.30;;;;;;;;;;1843730;77;26664;-47
2022/08/18 02:22:36;;;;;;;9.38;8.55;;;;;;;;;;1843951;77;26262;-48
2022/08/18 02:25:04;;;;;;;9.00;8.20;;;;;;;;;;1832083;77;26341;-46
2022/08/18 02:27:31;;;;;;;9.10;8.30;;;;;;;;;;1845948;76;26262;-46
2022/08/18 02:29:59;;;;;;;9.08;8.23;;;;;;;;;;1843049;77;26368;-48
2022/08/18 02:32:27;;;;;;;9.13;8.33;;;;;;;;;;1844033;77;26776;-48
2022/08/18 02:34:54;;;;;;;9.08;8.28;;;;;;;;;;1844083;77;26287;-46
2022/08/18 02:37:22;;;;;;;8.78;7.85;;;;;;;;;;1840922;76;26332;-46
2022/08/18 02:39:49;;;;;;;9.00;8.20;;;;;;;;;;1828057;77;26363;-46
2022/08/18 02:42:17;;;;;;;9.20;8.40;;;;;;;;;;1828896;76;26340;-47
2022/08/18 02:44:44;;;;;;;8.53;7.83;;;;;;;;;;1834726;77;26314;-45
2022/08/18 02:47:11;;;;;;;8.63;7.92;;;;;;;;;;1830931;76;26788;-46
2022/08/18 02:49:39;;;;;;;9.05;8.15;;;;;;;;;;1849001;76;26217;-49
2022/08/18 02:52:06;;;;;;;8.85;8.15;;;;;;;;;;1844028;77;26305;-46
2022/08/18 02:54:34;;;;;;;10.05;8.95;;;;;;;;;;1849329;77;26734;-51
2022/08/18 02:57:02;;;;;;;9.23;8.50;;;;;;;;;;1856553;76;26363;-48
2022/08/18 02:59:30;;;;;;;9.35;8.48;;;;;;;;;;1844902;77;26404;-46
2022/08/18 03:01:57;;;;;;;9.28;8.48;;;;;;;;;;1836047;77;26249;-46
2022/08/18 03:04:26;;;;;;;9.93;8.95;;;;;;;;;;1830312;76;27430;-48
2022/08/18 03:06:58;;;;;;;9.65;8.75;;;;;;;;;;1846460;76;26720;-46
2022/08/18 03:09:25;;;;;;;10.10;9.20;;;;;;;;;;1818850;77;26289;-49
2022/08/18 03:11:53;;;;;;;9.80;8.90;;;;;;;;;;1835962;77;26268;-46
2022/08/18 03:14:20;;;;;;;9.65;8.75;;;;;;;;;;1846787;77;26410;-46
2022/08/18 03:16:48;;;;;;;9.60;8.80;;;;;;;;;;1846937;76;27444;-51
2022/08/18 03:19:16;;;;;;;9.85;8.95;;;;;;;;;;1837169;77;26342;-46
2022/08/18 03:21:45;;;;;;;9.50;8.60;;;;;;;;;;1845226;77;26730;-46
2022/08/18 03:24:12;;;;;;;9.70;8.83;;;;;;;;;;1824277;77;26259;-49
2022/08/18 03:26:41;;;;;;;9.80;8.83;;;;;;;;;;1850815;76;26216;-45
2022/08/18 03:29:09;;;;;;;9.20;8.40;;;;;;;;;;1845360;77;26360;-48
2022/08/18 03:31:37;;;;;;;9.73;8.73;;;;;;;;;;1835828;77;26842;-46
2022/08/18 03:34:07;;;;;;;10.15;9.25;;;;;;;;;;1844475;77;26831;-47
2022/08/18 03:36:35;;;;;;;9.20;8.40;;;;;;;;;;1834171;76;26814;-51
2022/08/18 03:39:07;;;;;;;9.50;8.60;;;;;;;;;;1845351;77;26927;-45
2022/08/18 03:41:36;;;;;;;8.88;8.13;;;;;;;;;;1845218;77;26776;-49
2022/08/18 03:44:03;;;;;;;9.63;8.73;;;;;;;;;;1845347;77;26290;-47
2022/08/18 03:46:30;;;;;;;9.30;8.40;;;;;;;;;;1840220;76;26248;-47
2022/08/18 03:49:00;;;;;;;8.50;7.80;;;;;;;;;;1840175;77;26345;-50
2022/08/18 03:51:30;;;;;;;9.30;8.43;;;;;;;;;;1827586;77;26337;-46
2022/08/18 03:53:59;;;;;;;8.68;7.95;;;;;;;;;;1839662;77;26396;-45
2022/08/18 03:56:32;;;;;;;8.38;7.67;;;;;;;;;;1847321;76;26278;-47
2022/08/18 03:59:01;;;;;;;8.55;7.87;;;;;;;;;;1844150;77;26801;-47
2022/08/18 04:01:31;;;;;;;8.93;8.13;;;;;;;;;;1845350;77;26292;-47
2022/08/18 04:04:01;;;;;;;8.90;8.10;;;;;;;;;;1827965;77;26314;-46
2022/08/18 04:06:29;;;;;;;8.13;7.50;;;;;;;;;;1846704;76;26267;-47
2022/08/18 04:08:59;;;;;;;8.43;7.72;;;;;;;;;;1839131;76;26741;-48
2022/08/18 04:11:27;;;;;;;8.88;8.08;;;;;;;;;;1841983;76;27244;-47
2022/08/18 04:13:59;;;;;;;8.23;7.53;;;;;;;;;;1845528;76;26775;-45
2022/08/18 04:16:25;;;;;;;8.60;7.80;;;;;;;;;;1845421;76;27422;-47
2022/08/18 04:18:52;;;;;;;8.20;7.55;;;;;;;;;;1844529;76;26769;-48
2022/08/18 04:21:19;;;;;;;8.60;7.90;;;;;;;;;;1843060;76;26266;-46
2022/08/18 04:23:47;;;;;;;8.80;8.10;;;;;;;;;;1845229;77;26266;-48
2022/08/18 04:26:14;;;;;;;9.13;8.33;;;;;;;;;;1845631;76;26324;-45
2022/08/18 04:28:41;;;;;;;8.78;8.08;;;;;;;;;;1836711;76;26219;-46
2022/08/18 04:31:09;;;;;;;9.03;8.23;;;;;;;;;;1845627;76;26333;-48
2022/08/18 04:33:38;;;;;;;8.43;7.72;;;;;;;;;;1845734;76;26271;-47
2022/08/18 04:36:09;;;;;;;8.85;8.05;;;;;;;;;;1845471;76;26278;-47
2022/08/18 04:38:37;;;;;;;8.20;7.47;;;;;;;;;;1843417;76;26794;-46
2022/08/18 04:41:06;;;;;;;9.58;7.60;;;;;;;;;;1839740;76;26211;-45
2022/08/18 04:43:33;;;;;;;8.63;7.78;;;;;;;;;;1839340;76;26317;-50
2022/08/18 04:46:04;;;;;;;8.30;7.70;;;;;;;;;;1843834;76;26267;-47
2022/08/18 04:48:32;;;;;;;8.95;7.87;;;;;;;;;;1842977;76;26263;-47
2022/08/18 04:51:07;;;;;;;8.50;7.80;;;;;;;;;;1843976;76;26364;-46
2022/08/18 04:53:46;;;;;;;8.23;7.53;;;;;;;;;;1851293;77;26399;-46
2022/08/18 04:56:24;;;;;;;9.38;7.90;;;;;;;;;;1861068;75;26814;-43
2022/08/18 04:58:51;;;;;;;8.15;7.35;;;;;;;;;;1858818;76;26282;-47
2022/08/18 05:01:22;;;;;;;8.00;7.30;;;;;;;;;;1857215;77;26357;-50
2022/08/18 05:03:51;;;;;;;10.65;7.78;;;;;;;;;;1861029;76;26798;-49
2022/08/18 05:06:18;;;;;;;9.80;7.87;;;;;;;;;;1854557;75;26285;-46
2022/08/18 05:08:51;;;;;;;9.43;8.53;;;;;;;;;;1854562;76;26758;-44
2022/08/18 05:11:15;;;;;;;8.70;7.83;;;;;;;;;;1852478;75;26814;-45
2022/08/18 05:13:42;;;;;;;8.98;8.23;;;;;;;;;;1847859;77;26278;-47
2022/08/18 05:16:09;;;;;;;9.23;8.28;;;;;;;;;;1853826;75;26332;-44
2022/08/18 05:18:39;;;;;;;11.03;8.30;;;;;;;;;;1852384;76;26291;-45
2022/08/18 05:21:07;;;;;;;8.63;7.83;;;;;;;;;;1839249;77;26220;-46
2022/08/18 05:23:35;;;;;;;8.25;7.55;;;;;;;;;;1835915;76;26289;-45
2022/08/18 05:26:03;;;;;;;9.70;7.55;;;;;;;;;;1857622;75;26323;-45
2022/08/18 05:28:31;;;;;;;8.28;7.47;;;;;;;;;;1855666;75;26336;-46
2022/08/18 05:30:58;;;;;;;7.55;6.90;;;;;;;;;;1857527;75;26640;-49
2022/08/18 05:33:25;;;;;;;34.20;9.45;;;;;;;;;;1860692;76;26286;-48
2022/08/18 05:35:57;;;;;;;18.17;9.03;;;;;;;;;;1859717;75;26305;-52
2022/08/18 05:38:43;;;;;;;25.48;8.95;;;;;;;;;;1863188;75;26278;-45
2022/08/18 05:41:12;;;;;;;11.25;7.67;;;;;;;;;;1857604;77;26290;-45
2022/08/18 05:43:40;;;;;;;18.10;8.15;;;;;;;;;;1860404;76;26282;-45
2022/08/18 05:46:07;;;;;;;10.15;7.12;;;;;;;;;;1858469;75;26252;-46
2022/08/18 05:48:35;;;;;;;9.45;7.72;;;;;;;;;;1858247;77;26753;-46
2022/08/18 05:51:04;;;;;;;9.80;7.20;;;;;;;;;;1835479;77;26903;-49
2022/08/18 05:59:04;;;;;;;7.97;6.97;;;;;;;;;;1845513;76;26240;-47
2022/08/18 06:01:36;;;;;;;9.95;7.00;;;;;;;;;;1847304;77;26271;-45
2022/08/18 06:04:17;;;;;;;8.85;6.97;;;;;;;;;;1843457;77;26298;-47
2022/08/18 06:06:46;;;;;;;7.97;6.70;;;;;;;;;;1828704;77;26329;-47
2022/08/18 06:09:15;;;;;;;8.80;6.47;;;;;;;;;;1843002;77;26364;-45
2022/08/18 06:11:43;;;;;;;9.58;7.33;;;;;;;;;;1828046;77;26345;-46
2022/08/18 06:14:12;;;;;;;7.20;6.60;;;;;;;;;;1823175;77;26281;-46
2022/08/18 06:16:43;;;;;;;7.95;6.72;;;;;;;;;;1843729;77;26395;-45
2022/08/18 06:19:12;;;;;;;7.55;6.30;;;;;;;;;;1843151;77;26268;-45
2022/08/18 06:21:46;;;;;;;8.30;7.50;;;;;;;;;;1848395;76;26316;-45
2022/08/18 06:24:18;;;;;;;8.83;7.12;;;;;;;;;;1844934;77;26255;-45
2022/08/18 06:26:56;;;;;;;8.55;7.55;;;;;;;;;;1843506;77;26339;-45
2022/08/18 06:29:33;;;;;;;8.20;7.40;;;;;;;;;;1844547;76;26573;-48
2022/08/18 06:32:09;;;;;;;8.25;7.12;;;;;;;;;;1843397;77;26696;-45
2022/08/18 06:34:54;;;;;;;7.72;7.00;;;;;;;;;;1827486;77;26375;-46
2022/08/18 06:37:23;;;;;;;7.85;7.17;;;;;;;;;;1819184;76;26238;-44
2022/08/18 06:39:51;;;;;;;8.30;7.25;;;;;;;;;;1834792;77;26320;-46
2022/08/18 06:42:20;;;;;;;8.48;7.58;;;;;;;;;;1829416;76;26271;-49
2022/08/18 06:44:49;;;;;;;7.75;7.05;;;;;;;;;;1838420;76;26348;-46
2022/08/18 06:47:18;;;;;;;14.78;7.67;;;;;;;;;;1834479;77;26356;-47
2022/08/18 06:49:56;;;;;;;17.90;7.35;;;;;;;;;;1841981;76;27601;-46
2022/08/18 06:52:28;;;;;;;8.10;7.05;;;;;;;;;;1833833;76;26646;-45
2022/08/18 06:54:56;;;;;;;8.25;7.30;;;;;;;;;;1843447;77;26306;-44
2022/08/18 06:57:32;;;;;;;28.40;7.08;;;;;;;;;;1838728;76;26811;-44
2022/08/18 07:00:01;;;;;;;9.05;7.45;;;;;;;;;;1840137;76;26364;-44
2022/08/18 07:02:35;;;;;;;9.03;6.92;;;;;;;;;;1841948;76;26263;-45
2022/08/18 07:05:04;;;;;;;14.13;7.22;;;;;;;;;;1838224;76;26263;-45
2022/08/18 07:07:39;;;;;;;11.12;7.12;;;;;;;;;;1839060;76;26278;-46
2022/08/18 07:10:08;;;;;;;13.62;6.67;;;;;;;;;;1840818;76;26417;-47
2022/08/18 07:12:35;;;;;;;8.50;6.97;;;;;;;;;;1840003;76;26332;-44
2022/08/18 07:15:04;;;;;;;18.25;7.22;;;;;;;;;;1842375;76;26285;-46
2022/08/18 07:17:33;;;;;;;11.05;7.12;;;;;;;;;;1836200;76;26279;-46
2022/08/18 07:20:03;;;;;;;12.47;6.92;;;;;;;;;;1845175;76;26817;-45
2022/08/18 07:22:31;;;;;;;13.35;6.80;;;;;;;;;;1840205;76;26317;-45
2022/08/18 07:24:59;;;;;;;7.03;6.40;;;;;;;;;;1844554;76;26799;-48
2022/08/18 07:27:28;;;;;;;6.72;6.10;;;;;;;;;;1844832;76;26311;-48
2022/08/18 07:30:12;;;;;;;7.62;6.20;;;;;;;;;;1836927;76;26287;-48
2022/08/18 07:32:47;;;;;;;8.98;6.55;;;;;;;;;;1844793;76;26258;-44
2022/08/18 07:35:16;;;;;;;6.65;5.97;;;;;;;;;;1838949;76;26271;-48
2022/08/18 07:37:45;;;;;;;6.75;6.03;;;;;;;;;;1842748;76;26371;-46
2022/08/18 07:40:19;;;;;;;9.73;6.35;;;;;;;;;;1838041;76;26859;-44
2022/08/18 07:42:52;;;;;;;7.53;6.30;;;;;;;;;;1841529;76;26271;-45
2022/08/18 07:45:21;;;;;;;9.50;6.03;;;;;;;;;;1827563;76;26310;-45
2022/08/18 07:47:49;;;;;;;7.60;5.70;;;;;;;;;;1841040;76;26274;-46
2022/08/18 07:50:17;;;;;;;6.22;5.72;;;;;;;;;;1842213;76;26270;-45
2022/08/18 07:52:46;;;;;;;8.03;5.72;;;;;;;;;;1837818;76;26270;-45
2022/08/18 07:55:15;;;;;;;7.35;5.90;;;;;;;;;;1841958;76;26388;-48
2022/08/18 07:57:52;;;;;;;6.10;5.50;;;;;;;;;;1861153;76;26351;-44
2022/08/18 08:00:30;;;;;;;5.60;5.10;;;;;;;;;;1845105;75;26411;-46
2022/08/18 08:03:00;;;;;;;7.67;5.70;;;;;;;;;;1846542;76;26258;-47
2022/08/18 08:05:47;;;;;;;5.70;5.20;;;;;;;;;;1847120;77;26306;-45
2022/08/18 08:08:22;;;;;;;6.30;5.78;;;;;;;;;;1847589;76;26291;-46
2022/08/18 08:11:06;;;;;;;5.90;5.40;;;;;;;;;;1841668;75;26825;-45
2022/08/18 08:13:41;;;;;;;6.30;5.70;;;;;;;;;;1854050;76;26742;-48
2022/08/18 08:16:27;;;;;;;6.28;5.78;;;;;;;;;;1855709;75;26841;-46
2022/08/18 08:19:05;;;;;;;7.28;5.37;;;;;;;;;;1855045;76;26349;-46
2022/08/18 08:21:33;;;;;;;6.00;5.40;;;;;;;;;;1856188;76;26412;-45
2022/08/18 08:24:05;;;;;;;5.40;5.00;;;;;;;;;;1854368;76;26272;-46
2022/08/18 08:26:46;;;;;;;5.62;5.20;;;;;;;;;;1857050;76;26267;-44
2022/08/18 08:29:15;;;;;;;5.72;5.22;;;;;;;;;;1855268;75;26762;-44
2022/08/18 08:31:44;;;;;;;5.47;5.00;;;;;;;;;;1856096;75;26767;-45
2022/08/18 08:34:13;;;;;;;7.87;5.08;;;;;;;;;;1857535;75;27365;-45
2022/08/18 08:36:43;;;;;;;7.42;5.55;;;;;;;;;;1854210;75;26793;-44
2022/08/18 08:39:24;;;;;;;6.47;5.28;;;;;;;;;;1850676;77;26333;-45
2022/08/18 08:41:53;;;;;;;6.40;5.80;;;;;;;;;;1858835;75;26254;-48
2022/08/18 08:44:28;;;;;;;5.40;4.90;;;;;;;;;;1852016;76;26266;-45
2022/08/18 08:46:59;;;;;;;5.53;5.12;;;;;;;;;;1849553;75;26762;-46
2022/08/18 08:49:31;;;;;;;5.10;4.80;;;;;;;;;;1853525;75;26245;-44
2022/08/18 08:52:00;;;;;;;5.72;5.10;;;;;;;;;;1837950;76;26330;-44
2022/08/18 08:54:32;;;;;;;5.33;4.85;;;;;;;;;;1846986;77;26223;-46
2022/08/18 08:57:00;;;;;;;5.83;5.25;;;;;;;;;;1844853;76;26761;-46
2022/08/18 08:59:27;;;;;;;6.08;5.47;;;;;;;;;;1830655;76;26844;-43
2022/08/18 09:02:02;;;;;;;5.42;5.03;;;;;;;;;;1832125;77;26660;-48
2022/08/18 09:04:33;;;;;;;5.47;5.05;;;;;;;;;;1843188;77;27387;-46
2022/08/18 09:07:14;;;;;;;5.35;5.05;;;;;;;;;;1825927;76;26277;-44
2022/08/18 09:09:43;;;;;;;6.33;5.80;;;;;;;;;;1830868;76;26242;-44
2022/08/18 09:12:24;;;;;;;5.65;5.25;;;;;;;;;;1826206;77;27322;-45
2022/08/18 09:14:53;;;;;;;5.53;5.12;;;;;;;;;;1818701;76;26318;-43
2022/08/18 09:17:25;;;;;;;5.92;5.42;;;;;;;;;;1839319;77;26258;-45
2022/08/18 09:20:00;;;;;;;5.87;5.37;;;;;;;;;;1822184;77;26284;-43
2022/08/18 09:22:29;;;;;;;5.70;5.30;;;;;;;;;;1819919;77;26823;-46
2022/08/18 09:24:57;;;;;;;5.70;5.20;;;;;;;;;;1832011;77;26739;-46
2022/08/18 09:27:40;;;;;;;5.47;5.05;;;;;;;;;;1844788;77;26262;-46
2022/08/18 09:30:08;;;;;;;5.37;4.97;;;;;;;;;;1839349;77;26339;-44
2022/08/18 09:32:37;;;;;;;5.80;5.30;;;;;;;;;;1846272;76;26290;-46
2022/08/18 09:35:22;;;;;;;5.67;5.20;;;;;;;;;;1848389;76;26280;-48
2022/08/18 09:43:38;;;;;;;6.12;5.55;;;;;;;;;;1845327;76;26849;-47
2022/08/18 09:46:07;;;;;;;5.95;5.45;;;;;;;;;;1837881;76;26284;-44
2022/08/18 09:48:36;;;;;;;6.28;5.78;;;;;;;;;;1827070;77;26363;-45
2022/08/18 09:51:14;;;;;;;6.78;6.17;;;;;;;;;;1838544;77;26789;-47
2022/08/18 09:53:54;;;;;;;6.25;5.75;;;;;;;;;;1845306;77;26626;-49
2022/08/18 09:56:20;;;;;;;6.53;5.92;;;;;;;;;;1852833;77;26373;-45
2022/08/18 09:58:52;;;;;;;6.55;5.95;;;;;;;;;;1853315;77;26812;-46
2022/08/18 10:01:24;;;;;;;7.22;6.00;;;;;;;;;;1858803;77;26738;-45
2022/08/18 10:03:58;;;;;;;7.03;6.33;;;;;;;;;;1853751;77;26258;-44
2022/08/18 10:06:27;;;;;;;6.00;5.55;;;;;;;;;;1805433;76;26360;-47
2022/08/18 10:08:55;;;;;;;6.60;6.03;;;;;;;;;;1857952;76;27443;-43
2022/08/18 10:11:30;;;;;;;6.15;5.62;;;;;;;;;;1849362;76;27510;-47
2022/08/18 10:14:15;;;;;;;6.58;5.87;;;;;;;;;;1842553;77;25649;-48
2022/08/18 10:16:50;;;;;;;6.30;5.70;;;;;;;;;;1856902;75;26251;-45
2022/08/18 10:19:25;;;;;;;6.47;5.87;;;;;;;;;;1827466;76;26298;-47
2022/08/18 10:21:57;;;;;;;6.08;5.60;;;;;;;;;;1858510;76;26337;-46
2022/08/18 10:24:32;;;;;;;5.87;5.42;;;;;;;;;;1859855;76;26262;-49
2022/08/18 10:27:01;;;;;;;6.30;5.75;;;;;;;;;;1860292;76;26588;-45
2022/08/18 10:29:31;;;;;;;6.28;5.78;;;;;;;;;;1860788;76;26279;-46
2022/08/18 10:31:59;;;;;;;5.90;5.50;;;;;;;;;;1855654;76;26298;-44
2022/08/18 10:34:40;;;;;;;5.65;5.10;;;;;;;;;;1853050;75;26360;-46
2022/08/18 10:37:18;;;;;;;6.05;5.55;;;;;;;;;;1851197;75;26290;-44
2022/08/18 10:39:47;;;;;;;5.60;5.12;;;;;;;;;;1874302;75;26692;-43
2022/08/18 10:42:16;;;;;;;6.15;5.65;;;;;;;;;;1854733;77;26359;-43
2022/08/18 10:44:47;;;;;;;5.83;5.37;;;;;;;;;;1849735;75;26348;-48
2022/08/18 10:47:22;;;;;;;5.55;5.15;;;;;;;;;;1856950;76;26610;-45
2022/08/18 10:49:50;;;;;;;5.95;5.45;;;;;;;;;;1858424;76;26276;-47
2022/08/18 10:52:24;;;;;;;5.47;5.10;;;;;;;;;;1856748;76;26722;-45
2022/08/18 10:54:56;;;;;;;6.12;5.25;;;;;;;;;;1857191;76;26328;-48
2022/08/18 10:57:26;;;;;;;6.50;6.00;;;;;;;;;;1846011;76;26298;-50
2022/08/18 10:59:58;;;;;;;6.90;6.30;;;;;;;;;;1850304;76;26294;-51
2022/08/18 11:02:33;;;;;;;6.10;5.70;;;;;;;;;;1851286;76;26791;-47
2022/08/18 11:05:02;;;;;;;7.05;6.45;;;;;;;;;;1851293;76;26804;-45
2022/08/18 11:07:31;;;;;;;8.28;6.30;;;;;;;;;;1849276;76;26794;-51
2022/08/18 11:09:59;;;;;;;10.13;6.20;;;;;;;;;;1844867;76;26747;-46
2022/08/18 11:12:37;;;;;;;10.38;6.25;;;;;;;;;;1841612;76;26340;-48
2022/08/18 11:15:09;;;;;;;6.97;6.28;;;;;;;;;;1832832;77;26341;-47
2022/08/18 11:17:40;;;;;;;6.35;5.85;;;;;;;;;;1841238;76;26785;-47
2022/08/18 11:20:09;;;;;;;7.33;6.25;;;;;;;;;;1841719;76;26725;-46
2022/08/18 11:22:37;;;;;;;6.85;5.40;;;;;;;;;;1847448;76;26708;-45
2022/08/18 11:25:05;;;;;;;6.42;5.83;;;;;;;;;;1852684;76;26880;-46
2022/08/18 11:27:34;;;;;;;6.60;6.03;;;;;;;;;;1835564;77;26737;-49
2022/08/18 11:30:03;;;;;;;6.65;6.05;;;;;;;;;;1845996;76;26405;-48
2022/08/18 11:32:35;;;;;;;7.20;6.10;;;;;;;;;;1846625;77;26348;-45
2022/08/18 11:35:07;;;;;;;7.58;5.85;;;;;;;;;;1846141;77;26295;-46
2022/08/18 11:37:38;;;;;;;6.55;5.87;;;;;;;;;;1850576;77;26283;-45
2022/08/18 11:40:07;;;;;;;6.97;5.78;;;;;;;;;;1844736;76;26755;-45
2022/08/18 11:42:37;;;;;;;5.83;5.33;;;;;;;;;;1839284;76;26263;-47
2022/08/18 11:45:09;;;;;;;6.70;5.50;;;;;;;;;;1840524;76;26766;-50
2022/08/18 11:47:37;;;;;;;6.22;5.25;;;;;;;;;;1849947;77;26247;-46
2022/08/18 11:50:09;;;;;;;6.10;5.47;;;;;;;;;;1853429;76;26340;-46
2022/08/18 11:52:47;;;;;;;6.65;5.58;;;;;;;;;;1846043;76;26255;-48
2022/08/18 11:55:20;;;;;;;5.80;5.40;;;;;;;;;;1852403;77;26265;-46
2022/08/18 11:57:53;;;;;;;5.60;5.20;;;;;;;;;;1860340;76;26310;-46
2022/08/18 12:00:39;;;;;;;5.85;5.45;;;;;;;;;;1860594;77;26333;-45
2022/08/18 12:03:07;;;;;;;5.45;5.05;;;;;;;;;;1857529;76;26284;-45
2022/08/18 12:05:41;;;;;;;5.62;5.22;;;;;;;;;;1856587;76;26266;-48
2022/08/18 12:08:20;;;;;;;5.60;5.20;;;;;;;;;;1843965;76;26401;-46
2022/08/18 12:10:48;;;;;;;5.92;5.42;;;;;;;;;;1836939;76;26355;-44
2022/08/18 12:13:23;;;;;;;5.20;4.90;;;;;;;;;;1858217;75;26297;-49
2022/08/18 12:15:52;;;;;;;5.15;4.72;;;;;;;;;;1858819;75;26725;-50
2022/08/18 12:18:19;;;;;;;5.45;5.05;;;;;;;;;;1830249;76;26772;-46
2022/08/18 12:20:48;;;;;;;5.97;5.30;;;;;;;;;;1858399;76;26266;-44
2022/08/18 12:23:15;;;;;;;5.47;4.97;;;;;;;;;;1857146;76;26282;-44
2022/08/18 12:25:42;;;;;;;5.10;4.80;;;;;;;;;;1858897;76;26205;-42
2022/08/18 12:28:10;;;;;;;5.10;4.80;;;;;;;;;;1860161;76;26320;-44
2022/08/18 12:30:37;;;;;;;4.70;4.40;;;;;;;;;;1860672;76;26219;-44
2022/08/18 12:33:04;;;;;;;5.35;5.00;;;;;;;;;;1862760;76;26284;-46
2022/08/18 12:35:32;;;;;;;4.83;4.53;;;;;;;;;;1852079;75;26333;-44
2022/08/18 12:37:59;;;;;;;5.45;4.80;;;;;;;;;;1847508;76;27517;-46
2022/08/18 12:40:26;;;;;;;5.10;4.75;;;;;;;;;;1855680;76;26350;-41
2022/08/18 12:42:54;;;;;;;5.03;4.62;;;;;;;;;;1860211;77;26325;-46
2022/08/18 12:45:21;;;;;;;5.05;4.65;;;;;;;;;;1855226;75;26846;-44
2022/08/18 12:47:49;;;;;;;5.03;4.72;;;;;;;;;;1860405;75;26259;-46
2022/08/18 12:50:16;;;;;;;5.40;5.00;;;;;;;;;;1860920;75;26348;-45
2022/08/18 12:52:43;;;;;;;4.97;4.67;;;;;;;;;;1854046;77;26282;-45
2022/08/18 12:55:10;;;;;;;5.05;4.65;;;;;;;;;;1857288;76;26294;-47
2022/08/18 12:57:38;;;;;;;5.22;4.92;;;;;;;;;;1858358;76;26729;-45
2022/08/18 13:00:07;;;;;;;4.80;4.50;;;;;;;;;;1862300;75;26922;-47
2022/08/18 13:02:35;;;;;;;5.15;4.80;;;;;;;;;;1851265;76;26278;-44
2022/08/18 13:05:03;;;;;;;5.10;4.80;;;;;;;;;;1844440;76;26281;-44
2022/08/18 13:07:30;;;;;;;4.53;4.30;;;;;;;;;;1849426;75;27059;-45
2022/08/18 13:09:57;;;;;;;4.80;4.50;;;;;;;;;;1848837;75;26281;-48
2022/08/18 13:12:25;;;;;;;5.42;4.92;;;;;;;;;;1859759;76;26311;-48
2022/08/18 13:14:53;;;;;;;5.42;4.90;;;;;;;;;;1859848;75;26297;-46
2022/08/18 13:17:21;;;;;;;7.03;4.75;;;;;;;;;;1860627;76;26291;-49
2022/08/18 13:19:48;;;;;;;9.08;4.72;;;;;;;;;;1859555;75;26745;-46
2022/08/18 13:22:16;;;;;;;6.00;4.85;;;;;;;;;;1857278;76;26266;-46
2022/08/18 13:24:43;;;;;;;7.65;5.08;;;;;;;;;;1858541;75;26282;-46
2022/08/18 13:27:11;;;;;;;5.78;4.90;;;;;;;;;;1871358;75;26353;-48
2022/08/18 13:29:38;;;;;;;5.47;5.03;;;;;;;;;;1866259;75;26223;-58
2022/08/18 13:32:08;;;;;;;4.92;4.53;;;;;;;;;;1860417;76;26266;-48
2022/08/18 13:34:34;;;;;;;4.80;4.50;;;;;;;;;;1842980;76;26367;-51
2022/08/18 13:37:02;;;;;;;5.12;4.70;;;;;;;;;;1859179;77;26349;-47
2022/08/18 13:39:30;;;;;;;5.12;4.70;;;;;;;;;;1862290;76;26261;-50
2022/08/18 13:41:57;;;;;;;5.37;4.90;;;;;;;;;;1858460;76;26770;-47
2022/08/18 13:44:25;;;;;;;4.83;4.53;;;;;;;;;;1838704;76;26721;-49
2022/08/18 13:46:53;;;;;;;5.00;4.70;;;;;;;;;;1855240;75;26334;-48
2022/08/18 13:49:21;;;;;;;4.75;4.45;;;;;;;;;;1844693;75;26282;-47
2022/08/18 13:51:50;;;;;;;5.00;4.62;;;;;;;;;;1841424;76;26840;-49
2022/08/18 13:54:22;;;;;;;5.22;4.70;;;;;;;;;;1848029;76;26339;-46
2022/08/18 13:56:49;;;;;;;5.30;4.80;;;;;;;;;;1849755;75;26778;-47
2022/08/18 13:59:17;;;;;;;4.95;4.65;;;;;;;;;;1855734;76;26439;-48
2022/08/18 14:01:45;;;;;;;5.28;4.75;;;;;;;;;;1859586;75;26344;-46
2022/08/18 14:04:12;;;;;;;4.95;4.60;;;;;;;;;;1860539;76;26297;-46
2022/08/18 14:06:40;;;;;;;5.22;4.72;;;;;;;;;;1855158;76;26266;-49
2022/08/18 14:09:08;;;;;;;6.22;4.70;;;;;;;;;;1860247;75;26393;-47
2022/08/18 14:11:36;;;;;;;5.28;4.85;;;;;;;;;;1858420;75;26313;-50
2022/08/18 14:14:04;;;;;;;5.00;4.70;;;;;;;;;;1854789;75;27537;-46
2022/08/18 14:16:32;;;;;;;5.22;4.85;;;;;;;;;;1855583;75;26262;-47
2022/08/18 14:27:19;;;;;;;5.03;4.50;;;;;;;;;;1840971;75;26345;-49
2022/08/18 14:29:47;;;;;;;7.35;4.87;;;;;;;;;;1858017;75;26247;-47
2022/08/18 14:32:17;;;;;;;6.78;4.60;;;;;;;;;;1853793;75;26380;-51
2022/08/18 14:34:44;;;;;;;6.47;4.40;;;;;;;;;;1858070;75;26333;-47
2022/08/18 14:37:11;;;;;;;8.50;5.20;;;;;;;;;;1842143;76;26368;-49
2022/08/18 14:39:39;;;;;;;5.00;4.42;;;;;;;;;;1849334;75;26337;-51
2022/08/18 14:42:06;;;;;;;4.75;4.35;;;;;;;;;;1842776;75;26361;-50
2022/08/18 14:44:33;;;;;;;6.10;4.50;;;;;;;;;;1851764;76;26442;-48
2022/08/18 14:47:00;;;;;;;7.45;5.08;;;;;;;;;;1848177;75;26596;-47
2022/08/18 14:49:29;;;;;;;6.17;4.80;;;;;;;;;;1851338;75;26295;-50
2022/08/18 14:51:57;;;;;;;7.20;5.12;;;;;;;;;;1856330;76;26290;-48
2022/08/18 14:54:25;;;;;;;5.22;4.92;;;;;;;;;;1834743;76;26363;-49
2022/08/18 14:56:52;;;;;;;5.53;5.00;;;;;;;;;;1836193;77;26292;-50
2022/08/18 14:59:20;;;;;;;7.50;5.37;;;;;;;;;;1855823;76;26316;-47
2022/08/18 15:01:47;;;;;;;6.10;5.60;;;;;;;;;;1849557;77;26304;-46
2022/08/18 15:04:15;;;;;;;5.67;5.17;;;;;;;;;;1862878;75;26250;-47
2022/08/18 15:06:43;;;;;;;5.95;5.45;;;;;;;;;;1852447;77;27470;-46
2022/08/18 15:09:10;;;;;;;7.03;6.25;;;;;;;;;;1860339;76;27482;-51
2022/08/18 15:11:37;;;;;;;6.60;6.00;;;;;;;;;;1863488;75;26347;-46
2022/08/18 15:14:05;;;;;;;6.87;6.28;;;;;;;;;;1860762;76;26259;-50
2022/08/18 15:16:33;;;;;;;6.75;6.10;;;;;;;;;;1863092;76;27259;-50
2022/08/18 15:19:01;;;;;;;7.30;6.70;;;;;;;;;;1862635;76;26286;-49
2022/08/18 15:27:03;;;;;;;6.97;6.37;;;;;;;;;;1857469;75;26396;-47